Forside
METAR-TAF:

METAR-TAF

Lufthavne :

Lissabon Humberto Delgado Lufthavn

Lissabon, Portugal

Breddekreds: 38-46N, længdekreds: 009-08W, højde: 114 m

Aktuelle vejr

Denne rapport blev lavet for 45 minutter siden, kl. 00:00 UTC
Vind stille
Temperatur 14°C
Fugtighed 47%
Tryk 1028 hPa
Sigt 10 km eller mere
ingen skyer under 1500m og ingen cumulonimbus

METAR: LPPT 240000Z 00000KT CAVOK 14/03 Q1028

Tid: 00:45 (00:45 UTC)

Vejrudsigter

Denne rapport blev lavet for 1 time og 45 minutter siden, kl. 23:00 UTC
Foreløbig gælder fra 24 på 00 UTC til 25 på 06 UTC
Vind 3 kt fra varierende retninger
Sigt 10 km eller mere
ingen skyer under 1500m og ingen cumulonimbus
ændring
fra 24 på 04 UTC til 24 på 07 UTC
Vind 7 kt fra nordøst
Sandsynlighed 40%
fra 24 på 18 UTC til 24 på 22 UTC
Vind 7 kt fra nord

TAF: LPPT 232300Z 2400/2506 VRB03KT CAVOK BECMG 2404/2407 05007KT PROB40 2418/2422 35007KT

Vejrobservationer og prognoser fra mere end 4000 lufthavne (METAR og TAF).

De gule og røde prikker repræsenterer de meteorologiske stationer.

Flyt musen over at se navnet på stationen.

Så klik over at se vejr observationer og prognoser.

At skifte det kort: Klik på de grønne knapper med et sort kors for at zoome ind; på den grønne knap med en bindestreg for at zoome ud; eller på de grønne pile for tilstødende kort.


METAR-TAF: